createdAt,value
2018-05-31T00:41:27.924Z,23.40
2018-05-31T00:43:56.204Z,23.40
2018-05-31T00:46:24.134Z,23.40
2018-05-31T00:48:54.403Z,23.40
2018-05-31T00:51:22.761Z,23.30
2018-05-31T00:53:50.988Z,23.30
2018-05-31T00:56:19.112Z,23.30
2018-05-31T00:58:50.718Z,23.20
2018-05-31T01:01:18.686Z,23.20
2018-05-31T01:03:49.026Z,23.20
2018-05-31T01:06:19.726Z,23.20
2018-05-31T01:08:48.695Z,23.20
2018-05-31T01:24:12.989Z,22.80
2018-05-31T01:26:42.644Z,23.00
2018-05-31T01:29:11.862Z,23.10
2018-05-31T01:31:41.557Z,23.10
2018-05-31T01:36:40.832Z,23.10
2018-05-31T01:39:17.996Z,23.10
2018-05-31T01:41:46.166Z,23.20
2018-05-31T01:44:14.437Z,23.20
2018-05-31T01:46:42.384Z,23.20
2018-05-31T01:51:39.396Z,23.20
2018-05-31T01:54:08.883Z,23.20
2018-05-31T01:56:37.194Z,23.10
2018-05-31T01:59:05.652Z,23.00
2018-05-31T02:01:33.866Z,22.90
2018-05-31T02:19:26.070Z,22.50
2018-05-31T02:26:52.058Z,22.70
2018-05-31T02:29:20.019Z,22.60
2018-05-31T02:31:48.717Z,22.60
2018-05-31T02:44:13.397Z,22.40
2018-05-31T03:01:20.285Z,22.20
2018-05-31T03:03:48.835Z,22.20
2018-05-31T03:23:45.207Z,22.50
2018-05-31T03:26:15.475Z,22.50
2018-05-31T04:33:49.802Z,22.90
2018-05-31T04:36:19.483Z,22.90
2018-05-31T04:41:18.547Z,22.90
2018-05-31T04:46:21.384Z,23.00
2018-05-31T04:51:22.151Z,23.00
2018-05-31T04:53:51.350Z,23.10
2018-05-31T04:56:20.952Z,23.10
2018-05-31T05:03:53.203Z,23.10
2018-05-31T05:06:23.428Z,23.10
2018-05-31T05:11:25.350Z,23.20
2018-05-31T05:13:55.375Z,23.20
2018-05-31T05:16:26.118Z,23.30
2018-05-31T05:18:58.530Z,23.30
2018-05-31T05:21:27.032Z,23.30
2018-05-31T05:23:58.214Z,23.40
2018-05-31T05:26:28.867Z,23.50
2018-05-31T05:28:58.774Z,23.60
2018-05-31T05:44:24.383Z,23.30
2018-05-31T05:49:26.508Z,23.60
2018-05-31T05:51:57.169Z,23.70
2018-05-31T05:54:28.129Z,23.80
2018-05-31T05:56:59.725Z,23.90
2018-05-31T05:59:30.679Z,24.00
2018-05-31T06:02:02.237Z,24.00
2018-05-31T06:13:25.994Z,24.30
2018-05-31T07:04:02.513Z,25.10
2018-05-31T07:06:33.351Z,25.10
2018-05-31T07:09:03.764Z,25.20
2018-05-31T07:11:35.023Z,25.20
2018-05-31T07:14:05.371Z,25.30
2018-05-31T07:16:39.322Z,25.40
2018-05-31T07:32:04.592Z,24.70
2018-05-31T07:34:34.357Z,25.30
2018-05-31T07:37:05.797Z,25.50
2018-05-31T07:39:36.824Z,25.50
2018-05-31T07:42:07.081Z,25.10
2018-05-31T07:53:47.817Z,25.90
2018-05-31T07:56:18.581Z,25.50
2018-05-31T07:58:51.013Z,25.90
2018-05-31T08:01:22.331Z,25.60
2018-05-31T08:03:53.550Z,26.00
2018-05-31T08:06:25.101Z,25.60
2018-05-31T08:08:55.240Z,26.10
2018-05-31T08:11:25.254Z,25.80
2018-05-31T08:13:55.740Z,26.20
2018-05-31T08:16:27.245Z,25.80
2018-05-31T08:18:58.697Z,26.20
2018-05-31T08:21:29.451Z,25.90
2018-05-31T08:24:00.438Z,26.30
2018-05-31T08:26:31.776Z,25.90
2018-05-31T08:29:03.112Z,26.40
2018-05-31T08:31:35.509Z,26.00
2018-05-31T08:34:06.738Z,26.50
2018-05-31T08:36:37.381Z,26.20
2018-05-31T08:39:08.709Z,26.20
2018-05-31T08:41:39.137Z,26.10
2018-05-31T08:44:08.341Z,26.10
2018-05-31T08:46:38.567Z,26.60
2018-05-31T08:49:10.186Z,26.40
2018-05-31T08:51:40.293Z,26.40
2018-05-31T08:54:09.797Z,26.40
2018-05-31T08:56:39.921Z,26.40
2018-05-31T08:59:09.322Z,26.40
2018-05-31T09:01:40.036Z,26.50
2018-05-31T09:04:11.383Z,26.60
2018-05-31T09:06:42.102Z,26.60
2018-05-31T09:09:12.153Z,26.70
2018-05-31T09:11:42.291Z,26.80
2018-05-31T09:14:12.090Z,26.90
2018-05-31T09:16:41.897Z,27.00
2018-05-31T09:19:26.648Z,27.00
2018-05-31T09:21:56.106Z,27.10
2018-05-31T11:47:10.643Z,39.80
2018-05-31T11:49:40.936Z,40.00
2018-05-31T11:52:12.071Z,40.00
2018-05-31T12:17:19.948Z,42.70
2018-05-31T12:19:52.579Z,43.00
2018-05-31T12:22:24.750Z,42.40
2018-05-31T12:24:56.610Z,42.90
2018-05-31T12:46:48.808Z,44.40
2018-05-31T13:01:45.525Z,42.40
2018-05-31T13:04:17.598Z,42.50
2018-05-31T13:06:49.550Z,42.30
2018-05-31T13:09:21.484Z,42.10
2018-05-31T13:11:53.145Z,41.20
2018-05-31T13:14:25.597Z,40.60
2018-05-31T13:16:58.842Z,40.00
2018-05-31T13:19:32.376Z,39.60
2018-05-31T13:22:03.630Z,38.50
2018-05-31T13:37:30.774Z,39.20
2018-05-31T13:40:03.678Z,39.80
2018-05-31T13:55:29.423Z,41.40
2018-05-31T13:58:01.555Z,42.30
2018-05-31T14:00:33.326Z,42.30
2018-05-31T14:03:06.753Z,41.00
2018-05-31T14:05:39.367Z,39.40
2018-05-31T14:08:11.122Z,38.00
2018-05-31T14:10:41.646Z,36.90
2018-05-31T14:13:13.732Z,35.90
2018-05-31T14:15:45.590Z,35.40
2018-05-31T14:18:21.458Z,35.40
2018-05-31T14:20:54.748Z,36.00
2018-05-31T14:46:00.531Z,32.30
2018-05-31T14:48:33.154Z,32.10
2018-05-31T14:51:04.409Z,32.00
2018-05-31T14:53:34.485Z,31.60
2018-05-31T15:05:15.448Z,31.30
2018-05-31T15:30:22.848Z,30.50
2018-05-31T15:32:54.767Z,30.50
2018-05-31T15:35:26.132Z,30.50
2018-05-31T15:37:57.268Z,29.80
2018-05-31T15:40:29.802Z,28.80
2018-05-31T15:43:00.983Z,28.20
2018-05-31T15:45:32.124Z,27.60
2018-05-31T16:07:24.918Z,27.10
2018-05-31T16:09:54.352Z,27.20
2018-05-31T16:12:27.130Z,27.40
2018-05-31T16:14:59.408Z,27.60
2018-05-31T16:17:30.707Z,27.40
2018-05-31T16:32:59.000Z,27.20
2018-05-31T16:58:04.894Z,26.30
2018-05-31T17:00:35.508Z,26.20
2018-05-31T17:03:04.513Z,26.10
2018-05-31T17:14:44.578Z,25.80
2018-05-31T17:17:16.717Z,25.80
2018-05-31T17:35:57.346Z,25.20
2018-05-31T17:40:58.320Z,25.40
2018-05-31T17:46:00.358Z,25.30
2018-05-31T17:48:30.369Z,25.00
2018-05-31T17:51:00.491Z,25.40
2018-05-31T17:56:00.412Z,25.30
2018-05-31T18:01:01.804Z,25.10
2018-05-31T18:23:00.765Z,25.10
2018-05-31T18:25:32.443Z,25.20
2018-05-31T18:28:03.208Z,25.20
2018-05-31T18:30:36.419Z,25.20
2018-05-31T18:33:06.182Z,25.30
2018-05-31T18:35:36.345Z,25.20
2018-05-31T18:38:06.284Z,25.20
2018-05-31T18:40:39.203Z,25.20
2018-05-31T18:43:09.341Z,25.00
2018-05-31T18:45:39.802Z,25.00
2018-05-31T18:48:10.935Z,25.10
2018-05-31T18:50:42.238Z,25.10
2018-05-31T18:53:12.825Z,25.10
2018-05-31T18:55:43.468Z,25.10
2018-05-31T18:58:14.927Z,24.90
2018-05-31T19:00:47.240Z,24.90
2018-05-31T19:05:51.588Z,24.90
2018-05-31T19:13:26.969Z,24.80
2018-05-31T19:15:57.336Z,24.80
2018-05-31T19:41:19.601Z,24.30
2018-05-31T20:00:06.857Z,23.90
2018-05-31T20:35:18.485Z,23.90
2018-05-31T20:50:18.929Z,24.00
2018-05-31T20:52:50.818Z,24.00
2018-05-31T21:00:21.840Z,24.00
2018-05-31T21:12:34.333Z,23.30
2018-05-31T21:30:05.763Z,23.60
2018-05-31T22:25:25.566Z,23.20
